sensor_id;sensor_type;location;lat;lon;timestamp;P1;durP1;ratioP1;P2;durP2;ratioP2
2772;SDS011;1394;47.044;15.744;2023-07-09T00:02:12;27.20;;;1.93;;
2772;SDS011;1394;47.044;15.744;2023-07-09T00:04:40;27.70;;;2.17;;
2772;SDS011;1394;47.044;15.744;2023-07-09T00:07:12;27.30;;;2.50;;
2772;SDS011;1394;47.044;15.744;2023-07-09T00:09:41;25.37;;;2.57;;
2772;SDS011;1394;47.044;15.744;2023-07-09T00:12:11;25.03;;;2.00;;
2772;SDS011;1394;47.044;15.744;2023-07-09T00:14:41;25.20;;;2.40;;
2772;SDS011;1394;47.044;15.744;2023-07-09T00:17:09;25.80;;;2.70;;
2772;SDS011;1394;47.044;15.744;2023-07-09T00:19:37;25.40;;;2.40;;
2772;SDS011;1394;47.044;15.744;2023-07-09T00:22:10;25.50;;;2.30;;
2772;SDS011;1394;47.044;15.744;2023-07-09T00:24:42;25.20;;;2.47;;
2772;SDS011;1394;47.044;15.744;2023-07-09T00:27:10;25.83;;;2.20;;
2772;SDS011;1394;47.044;15.744;2023-07-09T00:29:41;25.33;;;2.20;;
2772;SDS011;1394;47.044;15.744;2023-07-09T00:32:10;25.83;;;2.37;;
2772;SDS011;1394;47.044;15.744;2023-07-09T00:34:40;25.20;;;2.20;;
2772;SDS011;1394;47.044;15.744;2023-07-09T00:37:14;25.27;;;2.23;;
2772;SDS011;1394;47.044;15.744;2023-07-09T00:39:41;26.03;;;2.23;;
2772;SDS011;1394;47.044;15.744;2023-07-09T00:42:11;25.43;;;2.60;;
2772;SDS011;1394;47.044;15.744;2023-07-09T00:44:40;25.20;;;2.30;;
2772;SDS011;1394;47.044;15.744;2023-07-09T00:47:18;25.47;;;2.40;;
2772;SDS011;1394;47.044;15.744;2023-07-09T00:49:49;25.30;;;2.20;;
2772;SDS011;1394;47.044;15.744;2023-07-09T00:52:19;26.20;;;2.27;;
2772;SDS011;1394;47.044;15.744;2023-07-09T00:54:48;25.90;;;2.63;;
2772;SDS011;1394;47.044;15.744;2023-07-09T00:57:18;25.37;;;2.57;;
2772;SDS011;1394;47.044;15.744;2023-07-09T00:59:47;25.40;;;2.40;;
2772;SDS011;1394;47.044;15.744;2023-07-09T01:02:17;25.27;;;2.43;;
2772;SDS011;1394;47.044;15.744;2023-07-09T01:04:48;24.90;;;2.00;;
2772;SDS011;1394;47.044;15.744;2023-07-09T01:07:15;25.53;;;2.27;;
2772;SDS011;1394;47.044;15.744;2023-07-09T01:09:44;25.47;;;2.40;;
2772;SDS011;1394;47.044;15.744;2023-07-09T01:12:12;25.37;;;2.60;;
2772;SDS011;1394;47.044;15.744;2023-07-09T01:14:41;24.70;;;2.20;;
2772;SDS011;1394;47.044;15.744;2023-07-09T01:17:08;26.07;;;2.43;;
2772;SDS011;1394;47.044;15.744;2023-07-09T01:19:38;26.13;;;2.63;;
2772;SDS011;1394;47.044;15.744;2023-07-09T01:22:11;25.30;;;2.40;;
2772;SDS011;1394;47.044;15.744;2023-07-09T01:24:51;25.17;;;2.43;;
2772;SDS011;1394;47.044;15.744;2023-07-09T01:27:23;26.27;;;2.40;;
2772;SDS011;1394;47.044;15.744;2023-07-09T01:29:52;26.17;;;2.57;;
2772;SDS011;1394;47.044;15.744;2023-07-09T01:32:20;25.30;;;2.27;;
2772;SDS011;1394;47.044;15.744;2023-07-09T01:34:48;25.23;;;2.27;;
2772;SDS011;1394;47.044;15.744;2023-07-09T01:37:17;25.00;;;2.20;;
2772;SDS011;1394;47.044;15.744;2023-07-09T01:39:47;25.00;;;2.10;;
2772;SDS011;1394;47.044;15.744;2023-07-09T01:42:14;25.27;;;2.20;;
2772;SDS011;1394;47.044;15.744;2023-07-09T01:44:42;25.47;;;2.13;;
2772;SDS011;1394;47.044;15.744;2023-07-09T01:47:10;25.00;;;2.00;;
2772;SDS011;1394;47.044;15.744;2023-07-09T01:49:37;25.93;;;2.20;;
2772;SDS011;1394;47.044;15.744;2023-07-09T01:52:06;25.97;;;2.70;;
2772;SDS011;1394;47.044;15.744;2023-07-09T01:54:35;25.10;;;2.37;;
2772;SDS011;1394;47.044;15.744;2023-07-09T01:57:13;25.30;;;2.37;;
2772;SDS011;1394;47.044;15.744;2023-07-09T01:59:44;26.57;;;2.20;;
2772;SDS011;1394;47.044;15.744;2023-07-09T02:02:12;26.40;;;2.53;;
2772;SDS011;1394;47.044;15.744;2023-07-09T02:04:45;24.90;;;1.97;;
2772;SDS011;1394;47.044;15.744;2023-07-09T02:07:12;25.43;;;2.10;;
2772;SDS011;1394;47.044;15.744;2023-07-09T02:09:41;25.40;;;2.33;;
2772;SDS011;1394;47.044;15.744;2023-07-09T02:12:09;25.77;;;2.33;;
2772;SDS011;1394;47.044;15.744;2023-07-09T02:14:36;25.60;;;2.63;;
2772;SDS011;1394;47.044;15.744;2023-07-09T02:17:03;25.80;;;2.20;;
2772;SDS011;1394;47.044;15.744;2023-07-09T02:19:31;25.17;;;2.00;;
2772;SDS011;1394;47.044;15.744;2023-07-09T02:21:58;25.23;;;2.20;;
2772;SDS011;1394;47.044;15.744;2023-07-09T02:24:25;25.33;;;2.43;;
2772;SDS011;1394;47.044;15.744;2023-07-09T02:26:54;24.97;;;2.07;;
2772;SDS011;1394;47.044;15.744;2023-07-09T02:29:22;25.43;;;1.97;;
2772;SDS011;1394;47.044;15.744;2023-07-09T02:31:50;25.53;;;2.40;;
2772;SDS011;1394;47.044;15.744;2023-07-09T02:34:19;26.70;;;2.33;;
2772;SDS011;1394;47.044;15.744;2023-07-09T02:36:50;25.53;;;2.40;;
2772;SDS011;1394;47.044;15.744;2023-07-09T02:39:18;26.20;;;2.47;;
2772;SDS011;1394;47.044;15.744;2023-07-09T02:41:45;25.30;;;2.23;;
2772;SDS011;1394;47.044;15.744;2023-07-09T02:44:14;25.17;;;2.10;;
2772;SDS011;1394;47.044;15.744;2023-07-09T02:46:42;25.40;;;2.40;;
2772;SDS011;1394;47.044;15.744;2023-07-09T02:49:09;26.17;;;2.73;;
2772;SDS011;1394;47.044;15.744;2023-07-09T02:51:37;25.80;;;2.60;;
2772;SDS011;1394;47.044;15.744;2023-07-09T02:54:04;25.43;;;2.37;;
2772;SDS011;1394;47.044;15.744;2023-07-09T02:56:32;26.20;;;2.63;;
2772;SDS011;1394;47.044;15.744;2023-07-09T02:59:00;25.63;;;2.60;;
2772;SDS011;1394;47.044;15.744;2023-07-09T03:01:28;25.40;;;2.70;;
2772;SDS011;1394;47.044;15.744;2023-07-09T03:03:58;25.73;;;2.40;;
2772;SDS011;1394;47.044;15.744;2023-07-09T03:06:27;25.30;;;2.50;;
2772;SDS011;1394;47.044;15.744;2023-07-09T03:08:57;25.73;;;2.47;;
2772;SDS011;1394;47.044;15.744;2023-07-09T03:11:27;25.50;;;2.27;;
2772;SDS011;1394;47.044;15.744;2023-07-09T03:13:55;24.80;;;2.20;;
2772;SDS011;1394;47.044;15.744;2023-07-09T03:16:25;26.13;;;2.53;;
2772;SDS011;1394;47.044;15.744;2023-07-09T03:18:54;25.70;;;2.40;;
2772;SDS011;1394;47.044;15.744;2023-07-09T03:21:21;25.70;;;2.33;;
2772;SDS011;1394;47.044;15.744;2023-07-09T03:23:48;25.70;;;2.20;;
2772;SDS011;1394;47.044;15.744;2023-07-09T03:26:15;25.63;;;2.40;;
2772;SDS011;1394;47.044;15.744;2023-07-09T03:28:43;25.97;;;2.13;;
2772;SDS011;1394;47.044;15.744;2023-07-09T03:31:10;25.27;;;2.43;;
2772;SDS011;1394;47.044;15.744;2023-07-09T03:33:37;25.77;;;2.70;;
2772;SDS011;1394;47.044;15.744;2023-07-09T03:36:06;25.80;;;2.73;;
2772;SDS011;1394;47.044;15.744;2023-07-09T03:38:33;25.30;;;2.70;;
2772;SDS011;1394;47.044;15.744;2023-07-09T03:41:00;25.23;;;2.33;;
2772;SDS011;1394;47.044;15.744;2023-07-09T03:43:28;25.07;;;2.07;;
2772;SDS011;1394;47.044;15.744;2023-07-09T03:45:55;25.20;;;2.20;;
2772;SDS011;1394;47.044;15.744;2023-07-09T03:48:22;25.53;;;2.20;;
2772;SDS011;1394;47.044;15.744;2023-07-09T03:50:50;25.37;;;2.43;;
2772;SDS011;1394;47.044;15.744;2023-07-09T03:53:18;25.40;;;2.60;;
2772;SDS011;1394;47.044;15.744;2023-07-09T03:55:45;25.50;;;2.33;;
2772;SDS011;1394;47.044;15.744;2023-07-09T03:58:13;26.23;;;2.30;;
2772;SDS011;1394;47.044;15.744;2023-07-09T04:00:43;25.20;;;2.63;;
2772;SDS011;1394;47.044;15.744;2023-07-09T04:03:10;25.37;;;2.00;;
2772;SDS011;1394;47.044;15.744;2023-07-09T04:05:37;25.47;;;2.67;;
2772;SDS011;1394;47.044;15.744;2023-07-09T04:08:04;26.30;;;2.40;;
2772;SDS011;1394;47.044;15.744;2023-07-09T04:10:34;25.10;;;2.40;;
2772;SDS011;1394;47.044;15.744;2023-07-09T04:13:01;25.07;;;2.30;;
2772;SDS011;1394;47.044;15.744;2023-07-09T04:15:28;25.60;;;2.10;;
2772;SDS011;1394;47.044;15.744;2023-07-09T04:17:56;25.30;;;2.30;;
2772;SDS011;1394;47.044;15.744;2023-07-09T04:20:23;25.20;;;2.00;;
2772;SDS011;1394;47.044;15.744;2023-07-09T04:22:53;26.67;;;2.60;;
2772;SDS011;1394;47.044;15.744;2023-07-09T04:25:21;25.67;;;2.00;;
2772;SDS011;1394;47.044;15.744;2023-07-09T04:27:49;25.90;;;1.90;;
2772;SDS011;1394;47.044;15.744;2023-07-09T04:30:17;25.33;;;2.30;;
2772;SDS011;1394;47.044;15.744;2023-07-09T04:32:45;25.43;;;2.30;;
2772;SDS011;1394;47.044;15.744;2023-07-09T04:35:27;25.27;;;2.20;;
2772;SDS011;1394;47.044;15.744;2023-07-09T04:37:54;25.50;;;2.30;;
2772;SDS011;1394;47.044;15.744;2023-07-09T04:40:24;25.40;;;2.30;;
2772;SDS011;1394;47.044;15.744;2023-07-09T04:42:55;25.00;;;2.20;;
2772;SDS011;1394;47.044;15.744;2023-07-09T04:45:23;25.10;;;2.20;;
2772;SDS011;1394;47.044;15.744;2023-07-09T04:47:50;25.17;;;2.20;;
2772;SDS011;1394;47.044;15.744;2023-07-09T04:50:18;25.23;;;2.30;;
2772;SDS011;1394;47.044;15.744;2023-07-09T04:52:45;25.40;;;2.27;;
2772;SDS011;1394;47.044;15.744;2023-07-09T04:55:13;25.10;;;2.20;;
2772;SDS011;1394;47.044;15.744;2023-07-09T04:57:40;25.20;;;2.07;;
2772;SDS011;1394;47.044;15.744;2023-07-09T05:00:10;25.00;;;1.80;;
2772;SDS011;1394;47.044;15.744;2023-07-09T05:02:37;25.40;;;2.23;;
2772;SDS011;1394;47.044;15.744;2023-07-09T05:05:05;25.80;;;2.50;;
2772;SDS011;1394;47.044;15.744;2023-07-09T05:07:34;25.73;;;2.20;;
2772;SDS011;1394;47.044;15.744;2023-07-09T05:10:02;25.30;;;2.50;;
2772;SDS011;1394;47.044;15.744;2023-07-09T05:12:29;25.57;;;2.00;;
2772;SDS011;1394;47.044;15.744;2023-07-09T05:14:57;25.87;;;2.13;;
2772;SDS011;1394;47.044;15.744;2023-07-09T05:17:28;25.10;;;2.00;;
2772;SDS011;1394;47.044;15.744;2023-07-09T05:19:55;25.27;;;2.00;;
2772;SDS011;1394;47.044;15.744;2023-07-09T05:22:24;25.17;;;2.30;;
2772;SDS011;1394;47.044;15.744;2023-07-09T05:24:53;25.97;;;2.33;;
2772;SDS011;1394;47.044;15.744;2023-07-09T05:27:34;25.10;;;2.00;;
2772;SDS011;1394;47.044;15.744;2023-07-09T05:30:04;25.47;;;2.30;;
2772;SDS011;1394;47.044;15.744;2023-07-09T05:32:35;25.73;;;2.20;;
2772;SDS011;1394;47.044;15.744;2023-07-09T05:35:05;25.50;;;2.43;;
2772;SDS011;1394;47.044;15.744;2023-07-09T05:37:35;25.27;;;2.17;;
2772;SDS011;1394;47.044;15.744;2023-07-09T05:40:03;25.07;;;2.00;;
2772;SDS011;1394;47.044;15.744;2023-07-09T05:42:30;25.30;;;1.90;;
2772;SDS011;1394;47.044;15.744;2023-07-09T05:44:58;25.70;;;2.50;;
2772;SDS011;1394;47.044;15.744;2023-07-09T05:47:29;25.33;;;2.30;;
2772;SDS011;1394;47.044;15.744;2023-07-09T05:49:57;26.00;;;2.17;;
2772;SDS011;1394;47.044;15.744;2023-07-09T05:52:24;25.30;;;2.17;;
2772;SDS011;1394;47.044;15.744;2023-07-09T05:54:54;25.13;;;2.30;;
2772;SDS011;1394;47.044;15.744;2023-07-09T05:57:22;25.10;;;2.10;;
2772;SDS011;1394;47.044;15.744;2023-07-09T05:59:49;25.20;;;1.90;;
2772;SDS011;1394;47.044;15.744;2023-07-09T06:02:19;25.17;;;2.07;;
2772;SDS011;1394;47.044;15.744;2023-07-09T06:04:48;25.50;;;2.00;;
2772;SDS011;1394;47.044;15.744;2023-07-09T06:07:19;25.00;;;1.93;;
2772;SDS011;1394;47.044;15.744;2023-07-09T06:09:48;25.63;;;2.23;;
2772;SDS011;1394;47.044;15.744;2023-07-09T06:12:15;25.27;;;1.97;;
2772;SDS011;1394;47.044;15.744;2023-07-09T06:14:44;25.20;;;2.00;;
2772;SDS011;1394;47.044;15.744;2023-07-09T06:17:11;25.27;;;2.10;;
2772;SDS011;1394;47.044;15.744;2023-07-09T06:19:38;25.20;;;1.70;;
2772;SDS011;1394;47.044;15.744;2023-07-09T06:22:06;25.30;;;2.10;;
2772;SDS011;1394;47.044;15.744;2023-07-09T06:24:39;27.47;;;1.93;;
2772;SDS011;1394;47.044;15.744;2023-07-09T06:27:08;25.20;;;2.00;;
2772;SDS011;1394;47.044;15.744;2023-07-09T06:29:36;25.33;;;1.90;;
2772;SDS011;1394;47.044;15.744;2023-07-09T06:32:04;25.27;;;2.20;;
2772;SDS011;1394;47.044;15.744;2023-07-09T06:34:31;25.30;;;2.07;;
2772;SDS011;1394;47.044;15.744;2023-07-09T06:36:59;25.20;;;2.13;;
2772;SDS011;1394;47.044;15.744;2023-07-09T06:39:26;25.67;;;2.10;;
2772;SDS011;1394;47.044;15.744;2023-07-09T06:41:55;25.20;;;2.00;;
2772;SDS011;1394;47.044;15.744;2023-07-09T06:44:23;25.63;;;2.10;;
2772;SDS011;1394;47.044;15.744;2023-07-09T06:46:51;26.60;;;2.10;;
2772;SDS011;1394;47.044;15.744;2023-07-09T06:49:18;25.20;;;2.10;;
2772;SDS011;1394;47.044;15.744;2023-07-09T06:51:45;25.20;;;1.80;;
2772;SDS011;1394;47.044;15.744;2023-07-09T06:54:15;25.37;;;2.10;;
2772;SDS011;1394;47.044;15.744;2023-07-09T06:56:45;25.17;;;1.90;;
2772;SDS011;1394;47.044;15.744;2023-07-09T06:59:13;26.13;;;1.90;;
2772;SDS011;1394;47.044;15.744;2023-07-09T07:01:41;25.20;;;2.10;;
2772;SDS011;1394;47.044;15.744;2023-07-09T07:04:08;25.30;;;2.00;;
2772;SDS011;1394;47.044;15.744;2023-07-09T07:06:38;25.53;;;2.00;;
2772;SDS011;1394;47.044;15.744;2023-07-09T07:09:06;25.77;;;1.80;;
2772;SDS011;1394;47.044;15.744;2023-07-09T07:11:34;26.13;;;1.87;;
2772;SDS011;1394;47.044;15.744;2023-07-09T07:14:01;24.97;;;1.90;;
2772;SDS011;1394;47.044;15.744;2023-07-09T07:16:31;25.27;;;2.07;;
2772;SDS011;1394;47.044;15.744;2023-07-09T07:18:59;25.10;;;2.00;;
2772;SDS011;1394;47.044;15.744;2023-07-09T07:21:26;25.07;;;1.87;;
2772;SDS011;1394;47.044;15.744;2023-07-09T07:23:53;25.10;;;2.10;;
2772;SDS011;1394;47.044;15.744;2023-07-09T07:26:21;25.10;;;2.10;;
2772;SDS011;1394;47.044;15.744;2023-07-09T07:28:50;24.90;;;1.90;;
2772;SDS011;1394;47.044;15.744;2023-07-09T07:31:18;24.80;;;1.90;;
2772;SDS011;1394;47.044;15.744;2023-07-09T07:33:50;24.90;;;1.80;;
2772;SDS011;1394;47.044;15.744;2023-07-09T07:36:18;25.77;;;1.80;;
2772;SDS011;1394;47.044;15.744;2023-07-09T07:38:46;25.47;;;1.80;;
2772;SDS011;1394;47.044;15.744;2023-07-09T07:41:43;25.23;;;1.93;;
2772;SDS011;1394;47.044;15.744;2023-07-09T07:44:11;25.20;;;1.70;;
2772;SDS011;1394;47.044;15.744;2023-07-09T07:46:40;25.03;;;1.90;;
2772;SDS011;1394;47.044;15.744;2023-07-09T07:49:07;25.10;;;2.10;;
2772;SDS011;1394;47.044;15.744;2023-07-09T07:51:35;24.90;;;1.80;;
2772;SDS011;1394;47.044;15.744;2023-07-09T07:54:04;24.80;;;1.70;;
2772;SDS011;1394;47.044;15.744;2023-07-09T07:56:31;25.60;;;2.00;;
2772;SDS011;1394;47.044;15.744;2023-07-09T07:59:00;24.70;;;1.63;;
2772;SDS011;1394;47.044;15.744;2023-07-09T08:01:28;24.90;;;1.77;;
2772;SDS011;1394;47.044;15.744;2023-07-09T08:03:56;25.17;;;1.80;;
2772;SDS011;1394;47.044;15.744;2023-07-09T08:06:25;24.97;;;1.80;;
2772;SDS011;1394;47.044;15.744;2023-07-09T08:08:52;24.80;;;1.80;;
2772;SDS011;1394;47.044;15.744;2023-07-09T08:11:20;24.70;;;1.73;;
2772;SDS011;1394;47.044;15.744;2023-07-09T08:13:47;25.20;;;1.80;;
2772;SDS011;1394;47.044;15.744;2023-07-09T08:16:21;25.03;;;1.90;;
2772;SDS011;1394;47.044;15.744;2023-07-09T08:18:49;24.70;;;1.70;;
2772;SDS011;1394;47.044;15.744;2023-07-09T08:21:17;25.00;;;1.90;;
2772;SDS011;1394;47.044;15.744;2023-07-09T08:23:46;25.50;;;2.00;;
2772;SDS011;1394;47.044;15.744;2023-07-09T08:26:15;24.80;;;1.90;;
2772;SDS011;1394;47.044;15.744;2023-07-09T08:28:43;25.40;;;1.87;;
2772;SDS011;1394;47.044;15.744;2023-07-09T08:31:10;24.97;;;1.90;;
2772;SDS011;1394;47.044;15.744;2023-07-09T08:33:39;25.33;;;1.70;;
2772;SDS011;1394;47.044;15.744;2023-07-09T08:36:07;24.83;;;1.80;;
2772;SDS011;1394;47.044;15.744;2023-07-09T08:38:40;24.60;;;1.67;;
2772;SDS011;1394;47.044;15.744;2023-07-09T08:41:08;24.67;;;1.90;;
2772;SDS011;1394;47.044;15.744;2023-07-09T08:43:39;24.93;;;1.87;;
2772;SDS011;1394;47.044;15.744;2023-07-09T08:46:15;25.00;;;1.50;;
2772;SDS011;1394;47.044;15.744;2023-07-09T08:48:48;24.77;;;1.80;;
2772;SDS011;1394;47.044;15.744;2023-07-09T08:51:18;24.87;;;1.70;;
2772;SDS011;1394;47.044;15.744;2023-07-09T08:53:48;25.30;;;1.70;;
2772;SDS011;1394;47.044;15.744;2023-07-09T08:56:16;24.70;;;1.87;;
2772;SDS011;1394;47.044;15.744;2023-07-09T08:58:46;25.27;;;1.70;;
2772;SDS011;1394;47.044;15.744;2023-07-09T09:01:19;25.17;;;1.60;;
2772;SDS011;1394;47.044;15.744;2023-07-09T09:03:47;24.57;;;1.60;;
2772;SDS011;1394;47.044;15.744;2023-07-09T09:06:19;24.80;;;1.67;;
2772;SDS011;1394;47.044;15.744;2023-07-09T09:08:53;25.63;;;1.70;;
2772;SDS011;1394;47.044;15.744;2023-07-09T09:11:23;25.07;;;1.80;;
2772;SDS011;1394;47.044;15.744;2023-07-09T09:13:53;24.80;;;1.60;;
2772;SDS011;1394;47.044;15.744;2023-07-09T09:16:23;25.03;;;1.90;;
2772;SDS011;1394;47.044;15.744;2023-07-09T09:18:53;25.43;;;1.53;;
2772;SDS011;1394;47.044;15.744;2023-07-09T09:21:23;24.97;;;1.73;;
2772;SDS011;1394;47.044;15.744;2023-07-09T09:23:52;24.60;;;1.63;;
2772;SDS011;1394;47.044;15.744;2023-07-09T09:26:22;24.67;;;1.57;;
2772;SDS011;1394;47.044;15.744;2023-07-09T09:28:52;25.00;;;1.90;;
2772;SDS011;1394;47.044;15.744;2023-07-09T09:31:20;24.60;;;1.60;;
2772;SDS011;1394;47.044;15.744;2023-07-09T09:33:50;24.50;;;1.37;;
2772;SDS011;1394;47.044;15.744;2023-07-09T09:36:18;25.70;;;1.67;;
2772;SDS011;1394;47.044;15.744;2023-07-09T09:38:48;24.80;;;1.90;;
2772;SDS011;1394;47.044;15.744;2023-07-09T09:41:18;24.10;;;1.40;;
2772;SDS011;1394;47.044;15.744;2023-07-09T09:43:47;24.50;;;1.70;;
2772;SDS011;1394;47.044;15.744;2023-07-09T09:46:16;26.43;;;1.70;;
2772;SDS011;1394;47.044;15.744;2023-07-09T09:48:44;25.07;;;1.90;;
2772;SDS011;1394;47.044;15.744;2023-07-09T09:51:12;24.93;;;1.50;;
2772;SDS011;1394;47.044;15.744;2023-07-09T09:53:41;25.33;;;1.90;;
2772;SDS011;1394;47.044;15.744;2023-07-09T09:56:14;24.63;;;1.90;;
2772;SDS011;1394;47.044;15.744;2023-07-09T09:58:43;24.40;;;1.50;;
2772;SDS011;1394;47.044;15.744;2023-07-09T10:01:14;25.20;;;1.90;;
2772;SDS011;1394;47.044;15.744;2023-07-09T10:03:41;24.40;;;1.70;;
2772;SDS011;1394;47.044;15.744;2023-07-09T10:06:12;24.90;;;1.73;;
2772;SDS011;1394;47.044;15.744;2023-07-09T10:08:44;25.90;;;1.60;;
2772;SDS011;1394;47.044;15.744;2023-07-09T10:11:18;24.70;;;1.70;;
2772;SDS011;1394;47.044;15.744;2023-07-09T10:13:47;24.53;;;1.70;;
2772;SDS011;1394;47.044;15.744;2023-07-09T10:16:17;24.63;;;1.87;;
2772;SDS011;1394;47.044;15.744;2023-07-09T10:18:49;24.60;;;1.50;;
2772;SDS011;1394;47.044;15.744;2023-07-09T10:21:22;24.40;;;1.70;;
2772;SDS011;1394;47.044;15.744;2023-07-09T10:24:22;24.67;;;1.90;;
2772;SDS011;1394;47.044;15.744;2023-07-09T10:26:56;26.30;;;1.40;;
2772;SDS011;1394;47.044;15.744;2023-07-09T10:29:29;24.20;;;1.43;;
2772;SDS011;1394;47.044;15.744;2023-07-09T10:32:02;24.30;;;1.60;;
2772;SDS011;1394;47.044;15.744;2023-07-09T10:34:34;24.43;;;1.57;;
2772;SDS011;1394;47.044;15.744;2023-07-09T10:37:12;24.83;;;1.63;;
2772;SDS011;1394;47.044;15.744;2023-07-09T10:39:43;24.60;;;1.53;;
2772;SDS011;1394;47.044;15.744;2023-07-09T10:42:17;24.63;;;1.60;;
2772;SDS011;1394;47.044;15.744;2023-07-09T10:44:51;24.40;;;1.40;;
2772;SDS011;1394;47.044;15.744;2023-07-09T10:47:25;24.97;;;1.50;;
2772;SDS011;1394;47.044;15.744;2023-07-09T10:49:56;24.60;;;1.70;;
2772;SDS011;1394;47.044;15.744;2023-07-09T10:52:25;24.17;;;1.40;;
2772;SDS011;1394;47.044;15.744;2023-07-09T10:54:54;24.30;;;1.57;;
2772;SDS011;1394;47.044;15.744;2023-07-09T10:57:28;24.43;;;1.40;;
2772;SDS011;1394;47.044;15.744;2023-07-09T10:59:56;24.77;;;1.63;;
2772;SDS011;1394;47.044;15.744;2023-07-09T11:02:25;24.87;;;1.80;;
2772;SDS011;1394;47.044;15.744;2023-07-09T11:04:53;24.60;;;1.63;;
2772;SDS011;1394;47.044;15.744;2023-07-09T11:07:25;24.77;;;1.30;;
2772;SDS011;1394;47.044;15.744;2023-07-09T11:09:53;24.40;;;1.43;;
2772;SDS011;1394;47.044;15.744;2023-07-09T11:12:27;24.90;;;1.43;;
2772;SDS011;1394;47.044;15.744;2023-07-09T11:14:55;24.10;;;1.30;;
2772;SDS011;1394;47.044;15.744;2023-07-09T11:17:24;24.50;;;1.50;;
2772;SDS011;1394;47.044;15.744;2023-07-09T11:19:54;24.53;;;1.40;;
2772;SDS011;1394;47.044;15.744;2023-07-09T11:22:23;24.40;;;1.67;;
2772;SDS011;1394;47.044;15.744;2023-07-09T11:24:51;24.90;;;1.50;;
2772;SDS011;1394;47.044;15.744;2023-07-09T11:27:21;24.50;;;1.30;;
2772;SDS011;1394;47.044;15.744;2023-07-09T11:29:57;24.30;;;1.37;;
2772;SDS011;1394;47.044;15.744;2023-07-09T11:32:24;25.10;;;1.67;;
2772;SDS011;1394;47.044;15.744;2023-07-09T11:34:53;24.57;;;1.43;;
2772;SDS011;1394;47.044;15.744;2023-07-09T11:37:23;24.30;;;1.40;;
2772;SDS011;1394;47.044;15.744;2023-07-09T11:39:52;25.80;;;1.60;;
2772;SDS011;1394;47.044;15.744;2023-07-09T11:42:26;24.70;;;1.70;;
2772;SDS011;1394;47.044;15.744;2023-07-09T11:44:55;23.60;;;1.40;;
2772;SDS011;1394;47.044;15.744;2023-07-09T11:47:27;24.80;;;1.50;;
2772;SDS011;1394;47.044;15.744;2023-07-09T11:49:56;24.27;;;1.50;;
2772;SDS011;1394;47.044;15.744;2023-07-09T11:52:25;24.20;;;1.40;;
2772;SDS011;1394;47.044;15.744;2023-07-09T11:54:55;25.90;;;1.60;;
2772;SDS011;1394;47.044;15.744;2023-07-09T11:57:24;24.40;;;1.50;;
2772;SDS011;1394;47.044;15.744;2023-07-09T11:59:52;24.30;;;1.30;;
2772;SDS011;1394;47.044;15.744;2023-07-09T12:02:20;24.20;;;1.17;;
2772;SDS011;1394;47.044;15.744;2023-07-09T12:04:53;25.90;;;1.50;;
2772;SDS011;1394;47.044;15.744;2023-07-09T12:07:24;24.73;;;1.60;;
2772;SDS011;1394;47.044;15.744;2023-07-09T12:09:52;24.40;;;1.47;;
2772;SDS011;1394;47.044;15.744;2023-07-09T12:12:20;24.57;;;1.50;;
2772;SDS011;1394;47.044;15.744;2023-07-09T12:14:49;24.80;;;1.30;;
2772;SDS011;1394;47.044;15.744;2023-07-09T12:17:17;24.20;;;1.47;;
2772;SDS011;1394;47.044;15.744;2023-07-09T12:19:45;24.17;;;1.40;;
2772;SDS011;1394;47.044;15.744;2023-07-09T12:22:16;24.30;;;1.50;;
2772;SDS011;1394;47.044;15.744;2023-07-09T12:24:44;24.60;;;1.60;;
2772;SDS011;1394;47.044;15.744;2023-07-09T12:27:21;24.07;;;1.30;;
2772;SDS011;1394;47.044;15.744;2023-07-09T12:29:51;24.83;;;1.43;;
2772;SDS011;1394;47.044;15.744;2023-07-09T12:32:19;24.50;;;1.40;;
2772;SDS011;1394;47.044;15.744;2023-07-09T12:34:53;24.10;;;1.40;;
2772;SDS011;1394;47.044;15.744;2023-07-09T12:37:25;24.10;;;1.40;;
2772;SDS011;1394;47.044;15.744;2023-07-09T12:39:54;24.50;;;1.47;;
2772;SDS011;1394;47.044;15.744;2023-07-09T12:42:24;24.40;;;1.50;;
2772;SDS011;1394;47.044;15.744;2023-07-09T12:44:55;24.10;;;1.40;;
2772;SDS011;1394;47.044;15.744;2023-07-09T12:47:24;25.03;;;1.53;;
2772;SDS011;1394;47.044;15.744;2023-07-09T12:49:51;24.87;;;1.27;;
2772;SDS011;1394;47.044;15.744;2023-07-09T12:52:30;24.37;;;1.40;;
2772;SDS011;1394;47.044;15.744;2023-07-09T12:54:58;24.23;;;1.40;;
2772;SDS011;1394;47.044;15.744;2023-07-09T12:57:25;24.60;;;1.50;;
2772;SDS011;1394;47.044;15.744;2023-07-09T12:59:56;24.47;;;1.10;;
2772;SDS011;1394;47.044;15.744;2023-07-09T13:02:26;24.00;;;1.27;;
2772;SDS011;1394;47.044;15.744;2023-07-09T13:04:59;23.90;;;1.10;;
2772;SDS011;1394;47.044;15.744;2023-07-09T13:07:29;24.13;;;1.27;;
2772;SDS011;1394;47.044;15.744;2023-07-09T13:10:04;24.00;;;1.30;;
2772;SDS011;1394;47.044;15.744;2023-07-09T13:12:32;24.10;;;1.50;;
2772;SDS011;1394;47.044;15.744;2023-07-09T13:15:19;23.95;;;1.42;;
2772;SDS011;1394;47.044;15.744;2023-07-09T13:17:47;23.97;;;1.30;;
2772;SDS011;1394;47.044;15.744;2023-07-09T13:20:14;24.67;;;1.30;;
2772;SDS011;1394;47.044;15.744;2023-07-09T13:22:41;24.20;;;1.30;;
2772;SDS011;1394;47.044;15.744;2023-07-09T13:25:11;24.10;;;1.40;;
2772;SDS011;1394;47.044;15.744;2023-07-09T13:27:40;23.80;;;1.30;;
2772;SDS011;1394;47.044;15.744;2023-07-09T13:30:08;25.60;;;1.40;;
2772;SDS011;1394;47.044;15.744;2023-07-09T13:32:36;23.83;;;1.27;;
2772;SDS011;1394;47.044;15.744;2023-07-09T13:35:05;23.85;;;1.30;;
2772;SDS011;1394;47.044;15.744;2023-07-09T13:37:36;23.75;;;1.20;;
2772;SDS011;1394;47.044;15.744;2023-07-09T13:40:04;23.80;;;1.42;;
2772;SDS011;1394;47.044;15.744;2023-07-09T13:42:36;24.88;;;1.30;;
2772;SDS011;1394;47.044;15.744;2023-07-09T13:45:04;23.85;;;1.40;;
2772;SDS011;1394;47.044;15.744;2023-07-09T13:47:31;24.35;;;1.38;;
2772;SDS011;1394;47.044;15.744;2023-07-09T13:50:00;24.55;;;1.30;;
2772;SDS011;1394;47.044;15.744;2023-07-09T13:52:28;24.20;;;1.23;;
2772;SDS011;1394;47.044;15.744;2023-07-09T13:55:19;23.90;;;1.30;;
2772;SDS011;1394;47.044;15.744;2023-07-09T13:57:48;23.85;;;1.13;;
2772;SDS011;1394;47.044;15.744;2023-07-09T14:00:16;23.75;;;1.40;;
2772;SDS011;1394;47.044;15.744;2023-07-09T14:02:44;24.00;;;1.30;;
2772;SDS011;1394;47.044;15.744;2023-07-09T14:05:12;24.05;;;1.50;;
2772;SDS011;1394;47.044;15.744;2023-07-09T14:07:41;24.50;;;1.38;;
2772;SDS011;1394;47.044;15.744;2023-07-09T14:10:11;23.75;;;1.30;;
2772;SDS011;1394;47.044;15.744;2023-07-09T14:12:40;23.45;;;1.20;;
2772;SDS011;1394;47.044;15.744;2023-07-09T14:15:14;23.80;;;1.30;;
2772;SDS011;1394;47.044;15.744;2023-07-09T14:17:41;24.52;;;1.25;;
2772;SDS011;1394;47.044;15.744;2023-07-09T14:20:12;23.58;;;1.20;;
2772;SDS011;1394;47.044;15.744;2023-07-09T14:22:47;23.95;;;1.40;;
2772;SDS011;1394;47.044;15.744;2023-07-09T14:25:15;23.75;;;1.10;;
2772;SDS011;1394;47.044;15.744;2023-07-09T14:27:46;23.65;;;1.40;;
2772;SDS011;1394;47.044;15.744;2023-07-09T14:30:20;23.85;;;1.35;;
2772;SDS011;1394;47.044;15.744;2023-07-09T14:32:48;23.75;;;1.30;;
2772;SDS011;1394;47.044;15.744;2023-07-09T14:35:16;24.50;;;1.50;;
2772;SDS011;1394;47.044;15.744;2023-07-09T14:37:45;24.00;;;1.30;;
2772;SDS011;1394;47.044;15.744;2023-07-09T14:40:13;23.85;;;1.20;;
2772;SDS011;1394;47.044;15.744;2023-07-09T14:42:46;23.75;;;1.30;;
2772;SDS011;1394;47.044;15.744;2023-07-09T14:45:19;23.85;;;1.35;;
2772;SDS011;1394;47.044;15.744;2023-07-09T14:47:49;24.10;;;1.30;;
2772;SDS011;1394;47.044;15.744;2023-07-09T14:50:17;23.65;;;1.30;;
2772;SDS011;1394;47.044;15.744;2023-07-09T14:52:46;23.73;;;1.08;;
2772;SDS011;1394;47.044;15.744;2023-07-09T14:55:14;23.65;;;1.27;;
2772;SDS011;1394;47.044;15.744;2023-07-09T14:57:42;23.65;;;1.13;;
2772;SDS011;1394;47.044;15.744;2023-07-09T15:00:12;23.83;;;1.33;;
2772;SDS011;1394;47.044;15.744;2023-07-09T15:02:42;23.75;;;1.10;;